sensor_id;sensor_type;location;lat;lon;timestamp;P1;durP1;ratioP1;P2;durP2;ratioP2
36725;SDS011;44936;52.086;5.150;2023-04-24T00:01:11;2.60;;;0.38;;
36725;SDS011;44936;52.086;5.150;2023-04-24T00:03:38;1.17;;;0.47;;
36725;SDS011;44936;52.086;5.150;2023-04-24T00:06:03;1.13;;;0.30;;
36725;SDS011;44936;52.086;5.150;2023-04-24T00:08:30;1.08;;;0.50;;
36725;SDS011;44936;52.086;5.150;2023-04-24T00:10:55;2.03;;;0.70;;
36725;SDS011;44936;52.086;5.150;2023-04-24T00:13:20;0.80;;;0.60;;
36725;SDS011;44936;52.086;5.150;2023-04-24T00:15:46;1.20;;;0.77;;
36725;SDS011;44936;52.086;5.150;2023-04-24T00:18:12;0.98;;;0.70;;
36725;SDS011;44936;52.086;5.150;2023-04-24T00:20:37;0.82;;;0.82;;
36725;SDS011;44936;52.086;5.150;2023-04-24T00:23:03;0.75;;;0.60;;
36725;SDS011;44936;52.086;5.150;2023-04-24T00:25:28;0.73;;;0.60;;
36725;SDS011;44936;52.086;5.150;2023-04-24T00:27:53;1.70;;;0.70;;
36725;SDS011;44936;52.086;5.150;2023-04-24T00:30:19;1.60;;;0.90;;
36725;SDS011;44936;52.086;5.150;2023-04-24T00:32:44;2.25;;;0.60;;
36725;SDS011;44936;52.086;5.150;2023-04-24T00:35:10;0.98;;;0.70;;
36725;SDS011;44936;52.086;5.150;2023-04-24T00:37:35;1.25;;;0.75;;
36725;SDS011;44936;52.086;5.150;2023-04-24T00:40:00;3.33;;;0.98;;
36725;SDS011;44936;52.086;5.150;2023-04-24T00:42:26;1.30;;;0.80;;
36725;SDS011;44936;52.086;5.150;2023-04-24T00:44:52;1.42;;;0.90;;
36725;SDS011;44936;52.086;5.150;2023-04-24T00:47:18;1.20;;;0.85;;
36725;SDS011;44936;52.086;5.150;2023-04-24T00:49:44;1.25;;;0.82;;
36725;SDS011;44936;52.086;5.150;2023-04-24T00:52:09;1.33;;;0.80;;
36725;SDS011;44936;52.086;5.150;2023-04-24T00:54:35;1.80;;;1.00;;
36725;SDS011;44936;52.086;5.150;2023-04-24T00:57:04;2.22;;;1.10;;
36725;SDS011;44936;52.086;5.150;2023-04-24T00:59:29;1.20;;;0.90;;
36725;SDS011;44936;52.086;5.150;2023-04-24T01:01:56;2.22;;;1.20;;
36725;SDS011;44936;52.086;5.150;2023-04-24T01:04:22;1.98;;;1.00;;
36725;SDS011;44936;52.086;5.150;2023-04-24T01:06:47;3.00;;;1.23;;
36725;SDS011;44936;52.086;5.150;2023-04-24T01:09:14;3.28;;;1.50;;
36725;SDS011;44936;52.086;5.150;2023-04-24T01:11:40;2.25;;;1.20;;
36725;SDS011;44936;52.086;5.150;2023-04-24T01:14:08;5.43;;;1.63;;
36725;SDS011;44936;52.086;5.150;2023-04-24T01:16:33;2.75;;;1.45;;
36725;SDS011;44936;52.086;5.150;2023-04-24T01:18:59;4.07;;;1.77;;
36725;SDS011;44936;52.086;5.150;2023-04-24T01:21:25;2.10;;;1.40;;
36725;SDS011;44936;52.086;5.150;2023-04-24T01:23:52;2.45;;;1.17;;
36725;SDS011;44936;52.086;5.150;2023-04-24T01:26:18;1.73;;;1.35;;
36725;SDS011;44936;52.086;5.150;2023-04-24T01:28:45;3.50;;;1.30;;
36725;SDS011;44936;52.086;5.150;2023-04-24T01:31:11;1.95;;;1.40;;
36725;SDS011;44936;52.086;5.150;2023-04-24T01:33:36;1.63;;;1.30;;
36725;SDS011;44936;52.086;5.150;2023-04-24T01:36:02;1.90;;;1.30;;
36725;SDS011;44936;52.086;5.150;2023-04-24T01:38:28;2.97;;;1.52;;
36725;SDS011;44936;52.086;5.150;2023-04-24T01:40:53;2.28;;;1.20;;
36725;SDS011;44936;52.086;5.150;2023-04-24T01:43:19;3.20;;;1.50;;
36725;SDS011;44936;52.086;5.150;2023-04-24T01:45:44;4.88;;;1.30;;
36725;SDS011;44936;52.086;5.150;2023-04-24T01:48:11;3.20;;;1.30;;
36725;SDS011;44936;52.086;5.150;2023-04-24T01:50:37;1.50;;;0.95;;
36725;SDS011;44936;52.086;5.150;2023-04-24T01:53:02;1.95;;;1.10;;
36725;SDS011;44936;52.086;5.150;2023-04-24T01:55:27;2.08;;;1.05;;
36725;SDS011;44936;52.086;5.150;2023-04-24T01:57:53;2.65;;;1.13;;
36725;SDS011;44936;52.086;5.150;2023-04-24T02:00:20;1.42;;;0.90;;
36725;SDS011;44936;52.086;5.150;2023-04-24T02:02:46;2.05;;;1.10;;
36725;SDS011;44936;52.086;5.150;2023-04-24T02:05:11;1.73;;;1.20;;
36725;SDS011;44936;52.086;5.150;2023-04-24T02:07:37;2.10;;;1.08;;
36725;SDS011;44936;52.086;5.150;2023-04-24T02:10:02;1.88;;;0.88;;
36725;SDS011;44936;52.086;5.150;2023-04-24T02:12:29;2.03;;;1.17;;
36725;SDS011;44936;52.086;5.150;2023-04-24T02:14:54;1.27;;;0.75;;
36725;SDS011;44936;52.086;5.150;2023-04-24T02:17:20;2.40;;;1.17;;
36725;SDS011;44936;52.086;5.150;2023-04-24T02:19:46;2.55;;;1.10;;
36725;SDS011;44936;52.086;5.150;2023-04-24T02:22:11;2.22;;;1.17;;
36725;SDS011;44936;52.086;5.150;2023-04-24T02:24:37;2.38;;;1.05;;
36725;SDS011;44936;52.086;5.150;2023-04-24T02:27:03;1.90;;;0.85;;
36725;SDS011;44936;52.086;5.150;2023-04-24T02:29:28;2.03;;;1.00;;
36725;SDS011;44936;52.086;5.150;2023-04-24T02:31:54;1.27;;;0.85;;
36725;SDS011;44936;52.086;5.150;2023-04-24T02:34:19;1.60;;;0.80;;
36725;SDS011;44936;52.086;5.150;2023-04-24T02:36:45;2.25;;;1.30;;
36725;SDS011;44936;52.086;5.150;2023-04-24T02:39:10;1.48;;;1.02;;
36725;SDS011;44936;52.086;5.150;2023-04-24T02:41:35;1.88;;;1.10;;
36725;SDS011;44936;52.086;5.150;2023-04-24T02:44:01;2.20;;;1.00;;
36725;SDS011;44936;52.086;5.150;2023-04-24T02:46:26;2.03;;;1.10;;
36725;SDS011;44936;52.086;5.150;2023-04-24T02:48:51;1.83;;;1.10;;
36725;SDS011;44936;52.086;5.150;2023-04-24T02:51:17;2.47;;;1.00;;
36725;SDS011;44936;52.086;5.150;2023-04-24T02:53:43;4.25;;;1.10;;
36725;SDS011;44936;52.086;5.150;2023-04-24T02:56:08;1.70;;;1.30;;
36725;SDS011;44936;52.086;5.150;2023-04-24T02:58:34;2.65;;;1.23;;
36725;SDS011;44936;52.086;5.150;2023-04-24T03:01:00;1.65;;;1.13;;
36725;SDS011;44936;52.086;5.150;2023-04-24T03:03:26;4.53;;;1.48;;
36725;SDS011;44936;52.086;5.150;2023-04-24T03:05:51;2.78;;;1.27;;
36725;SDS011;44936;52.086;5.150;2023-04-24T03:08:17;3.58;;;1.67;;
36725;SDS011;44936;52.086;5.150;2023-04-24T03:10:43;2.72;;;1.40;;
36725;SDS011;44936;52.086;5.150;2023-04-24T03:13:08;4.10;;;1.95;;
36725;SDS011;44936;52.086;5.150;2023-04-24T03:15:34;3.10;;;1.70;;
36725;SDS011;44936;52.086;5.150;2023-04-24T03:17:59;3.03;;;1.48;;
36725;SDS011;44936;52.086;5.150;2023-04-24T03:20:25;3.25;;;1.50;;
36725;SDS011;44936;52.086;5.150;2023-04-24T03:22:51;3.75;;;1.48;;
36725;SDS011;44936;52.086;5.150;2023-04-24T03:25:16;2.05;;;1.30;;
36725;SDS011;44936;52.086;5.150;2023-04-24T03:27:42;3.42;;;1.45;;
36725;SDS011;44936;52.086;5.150;2023-04-24T03:30:07;3.40;;;1.25;;
36725;SDS011;44936;52.086;5.150;2023-04-24T03:32:33;4.38;;;1.58;;
36725;SDS011;44936;52.086;5.150;2023-04-24T03:34:58;4.45;;;1.55;;
36725;SDS011;44936;52.086;5.150;2023-04-24T03:37:23;2.83;;;1.17;;
36725;SDS011;44936;52.086;5.150;2023-04-24T03:39:49;2.72;;;1.33;;
36725;SDS011;44936;52.086;5.150;2023-04-24T03:42:14;3.05;;;1.00;;
36725;SDS011;44936;52.086;5.150;2023-04-24T03:44:40;2.38;;;1.00;;
36725;SDS011;44936;52.086;5.150;2023-04-24T03:47:05;2.30;;;1.10;;
36725;SDS011;44936;52.086;5.150;2023-04-24T03:49:31;4.82;;;1.30;;
36725;SDS011;44936;52.086;5.150;2023-04-24T03:51:56;2.15;;;1.23;;
36725;SDS011;44936;52.086;5.150;2023-04-24T03:54:21;2.95;;;1.30;;
36725;SDS011;44936;52.086;5.150;2023-04-24T03:56:47;3.25;;;1.33;;
36725;SDS011;44936;52.086;5.150;2023-04-24T03:59:12;3.75;;;1.25;;
36725;SDS011;44936;52.086;5.150;2023-04-24T04:01:38;3.50;;;1.60;;
36725;SDS011;44936;52.086;5.150;2023-04-24T04:04:04;5.18;;;1.17;;
36725;SDS011;44936;52.086;5.150;2023-04-24T04:06:31;2.72;;;1.00;;
36725;SDS011;44936;52.086;5.150;2023-04-24T04:08:56;4.10;;;1.30;;
36725;SDS011;44936;52.086;5.150;2023-04-24T04:11:22;2.40;;;1.13;;
36725;SDS011;44936;52.086;5.150;2023-04-24T04:13:48;4.60;;;1.20;;
36725;SDS011;44936;52.086;5.150;2023-04-24T04:16:13;2.72;;;1.20;;
36725;SDS011;44936;52.086;5.150;2023-04-24T04:18:41;3.35;;;1.10;;
36725;SDS011;44936;52.086;5.150;2023-04-24T04:21:07;2.50;;;1.45;;
36725;SDS011;44936;52.086;5.150;2023-04-24T04:23:32;4.38;;;1.25;;
36725;SDS011;44936;52.086;5.150;2023-04-24T04:25:58;3.53;;;0.90;;
36725;SDS011;44936;52.086;5.150;2023-04-24T04:28:23;2.97;;;1.20;;
36725;SDS011;44936;52.086;5.150;2023-04-24T04:30:49;3.78;;;1.13;;
36725;SDS011;44936;52.086;5.150;2023-04-24T04:33:19;2.60;;;1.13;;
36725;SDS011;44936;52.086;5.150;2023-04-24T04:35:47;2.58;;;1.30;;
36725;SDS011;44936;52.086;5.150;2023-04-24T04:38:17;4.18;;;1.20;;
36725;SDS011;44936;52.086;5.150;2023-04-24T04:40:45;2.83;;;1.20;;
36725;SDS011;44936;52.086;5.150;2023-04-24T04:43:11;2.55;;;1.00;;
36725;SDS011;44936;52.086;5.150;2023-04-24T04:45:38;3.47;;;1.20;;
36725;SDS011;44936;52.086;5.150;2023-04-24T04:48:05;4.68;;;1.40;;
36725;SDS011;44936;52.086;5.150;2023-04-24T04:50:32;3.38;;;1.27;;
36725;SDS011;44936;52.086;5.150;2023-04-24T04:52:58;1.92;;;1.17;;
36725;SDS011;44936;52.086;5.150;2023-04-24T04:55:23;2.15;;;1.05;;
36725;SDS011;44936;52.086;5.150;2023-04-24T04:57:48;4.78;;;1.73;;
36725;SDS011;44936;52.086;5.150;2023-04-24T05:00:14;4.57;;;1.48;;
36725;SDS011;44936;52.086;5.150;2023-04-24T05:02:40;4.03;;;1.33;;
36725;SDS011;44936;52.086;5.150;2023-04-24T05:05:06;2.95;;;1.33;;
36725;SDS011;44936;52.086;5.150;2023-04-24T05:07:32;2.72;;;1.15;;
36725;SDS011;44936;52.086;5.150;2023-04-24T05:09:58;3.03;;;1.50;;
36725;SDS011;44936;52.086;5.150;2023-04-24T05:12:23;2.58;;;1.20;;
36725;SDS011;44936;52.086;5.150;2023-04-24T05:14:48;1.30;;;0.63;;
36725;SDS011;44936;52.086;5.150;2023-04-24T05:17:14;1.95;;;0.90;;
36725;SDS011;44936;52.086;5.150;2023-04-24T05:19:40;0.32;;;0.30;;
36725;SDS011;44936;52.086;5.150;2023-04-24T05:22:05;2.67;;;0.30;;
36725;SDS011;44936;52.086;5.150;2023-04-24T05:24:35;0.32;;;0.25;;
36725;SDS011;44936;52.086;5.150;2023-04-24T05:27:01;1.25;;;0.20;;
36725;SDS011;44936;52.086;5.150;2023-04-24T05:29:27;0.45;;;0.40;;
36725;SDS011;44936;52.086;5.150;2023-04-24T05:31:55;1.20;;;0.20;;
36725;SDS011;44936;52.086;5.150;2023-04-24T05:34:21;1.75;;;0.20;;
36725;SDS011;44936;52.086;5.150;2023-04-24T05:36:47;0.10;;;0.10;;
36725;SDS011;44936;52.086;5.150;2023-04-24T05:39:12;2.00;;;0.20;;
36725;SDS011;44936;52.086;5.150;2023-04-24T05:41:38;0.20;;;0.20;;
36725;SDS011;44936;52.086;5.150;2023-04-24T05:44:03;0.10;;;0.03;;
36725;SDS011;44936;52.086;5.150;2023-04-24T05:46:29;1.35;;;0.40;;
36725;SDS011;44936;52.086;5.150;2023-04-24T05:48:54;1.55;;;0.30;;
36725;SDS011;44936;52.086;5.150;2023-04-24T05:51:20;0.57;;;0.22;;
36725;SDS011;44936;52.086;5.150;2023-04-24T05:53:45;1.55;;;0.28;;
36725;SDS011;44936;52.086;5.150;2023-04-24T05:56:12;3.25;;;0.35;;
36725;SDS011;44936;52.086;5.150;2023-04-24T05:58:37;0.45;;;0.40;;
36725;SDS011;44936;52.086;5.150;2023-04-24T06:01:02;0.38;;;0.30;;
36725;SDS011;44936;52.086;5.150;2023-04-24T06:03:28;1.58;;;0.80;;
36725;SDS011;44936;52.086;5.150;2023-04-24T06:05:54;0.88;;;0.50;;
36725;SDS011;44936;52.086;5.150;2023-04-24T06:08:19;0.70;;;0.63;;
36725;SDS011;44936;52.086;5.150;2023-04-24T06:10:45;1.65;;;0.80;;
36725;SDS011;44936;52.086;5.150;2023-04-24T06:13:10;0.95;;;0.50;;
36725;SDS011;44936;52.086;5.150;2023-04-24T06:15:36;0.95;;;0.40;;
36725;SDS011;44936;52.086;5.150;2023-04-24T06:18:02;3.05;;;0.93;;
36725;SDS011;44936;52.086;5.150;2023-04-24T06:20:27;4.10;;;1.05;;
36725;SDS011;44936;52.086;5.150;2023-04-24T06:22:53;3.60;;;1.50;;
36725;SDS011;44936;52.086;5.150;2023-04-24T06:25:19;4.85;;;1.90;;
36725;SDS011;44936;52.086;5.150;2023-04-24T06:27:44;7.00;;;1.83;;
36725;SDS011;44936;52.086;5.150;2023-04-24T06:30:10;6.25;;;1.90;;
36725;SDS011;44936;52.086;5.150;2023-04-24T06:32:36;5.22;;;2.20;;
36725;SDS011;44936;52.086;5.150;2023-04-24T06:35:01;5.50;;;2.08;;
36725;SDS011;44936;52.086;5.150;2023-04-24T06:37:27;5.68;;;2.53;;
36725;SDS011;44936;52.086;5.150;2023-04-24T06:39:52;5.93;;;2.40;;
36725;SDS011;44936;52.086;5.150;2023-04-24T06:42:18;5.32;;;2.63;;
36725;SDS011;44936;52.086;5.150;2023-04-24T06:44:45;6.80;;;2.80;;
36725;SDS011;44936;52.086;5.150;2023-04-24T06:47:11;5.93;;;2.80;;
36725;SDS011;44936;52.086;5.150;2023-04-24T06:49:38;10.32;;;2.92;;
36725;SDS011;44936;52.086;5.150;2023-04-24T06:52:04;8.45;;;2.50;;
36725;SDS011;44936;52.086;5.150;2023-04-24T06:54:30;7.22;;;2.60;;
36725;SDS011;44936;52.086;5.150;2023-04-24T06:56:56;9.68;;;2.80;;
36725;SDS011;44936;52.086;5.150;2023-04-24T06:59:23;10.35;;;3.10;;
36725;SDS011;44936;52.086;5.150;2023-04-24T07:01:49;4.93;;;2.25;;
36725;SDS011;44936;52.086;5.150;2023-04-24T07:04:16;7.72;;;2.50;;
36725;SDS011;44936;52.086;5.150;2023-04-24T07:06:41;6.75;;;2.42;;
36725;SDS011;44936;52.086;5.150;2023-04-24T07:09:07;7.95;;;2.45;;
36725;SDS011;44936;52.086;5.150;2023-04-24T07:11:33;6.65;;;2.35;;
36725;SDS011;44936;52.086;5.150;2023-04-24T07:14:00;8.85;;;2.80;;
36725;SDS011;44936;52.086;5.150;2023-04-24T07:16:25;6.55;;;2.25;;
36725;SDS011;44936;52.086;5.150;2023-04-24T07:18:51;10.88;;;2.63;;
36725;SDS011;44936;52.086;5.150;2023-04-24T07:21:16;6.00;;;2.35;;
36725;SDS011;44936;52.086;5.150;2023-04-24T07:23:42;8.55;;;2.50;;
36725;SDS011;44936;52.086;5.150;2023-04-24T07:26:07;6.35;;;2.25;;
36725;SDS011;44936;52.086;5.150;2023-04-24T07:28:32;5.32;;;2.17;;
36725;SDS011;44936;52.086;5.150;2023-04-24T07:30:58;6.90;;;2.75;;
36725;SDS011;44936;52.086;5.150;2023-04-24T07:33:24;7.22;;;2.00;;
36725;SDS011;44936;52.086;5.150;2023-04-24T07:35:50;8.15;;;2.08;;
36725;SDS011;44936;52.086;5.150;2023-04-24T07:38:16;6.65;;;2.08;;
36725;SDS011;44936;52.086;5.150;2023-04-24T07:40:41;4.85;;;1.85;;
36725;SDS011;44936;52.086;5.150;2023-04-24T07:43:07;9.20;;;2.42;;
36725;SDS011;44936;52.086;5.150;2023-04-24T07:45:32;6.57;;;2.00;;
36725;SDS011;44936;52.086;5.150;2023-04-24T07:48:01;6.05;;;1.52;;
36725;SDS011;44936;52.086;5.150;2023-04-24T07:50:26;10.88;;;2.10;;
36725;SDS011;44936;52.086;5.150;2023-04-24T07:52:51;5.70;;;1.90;;
36725;SDS011;44936;52.086;5.150;2023-04-24T07:55:17;5.00;;;1.92;;
36725;SDS011;44936;52.086;5.150;2023-04-24T07:57:42;4.13;;;1.73;;
36725;SDS011;44936;52.086;5.150;2023-04-24T08:00:07;8.38;;;1.77;;
36725;SDS011;44936;52.086;5.150;2023-04-24T08:02:34;6.30;;;1.73;;
36725;SDS011;44936;52.086;5.150;2023-04-24T08:04:59;9.73;;;1.30;;
36725;SDS011;44936;52.086;5.150;2023-04-24T08:07:25;5.18;;;1.80;;
36725;SDS011;44936;52.086;5.150;2023-04-24T08:09:50;4.22;;;1.92;;
36725;SDS011;44936;52.086;5.150;2023-04-24T08:12:15;4.30;;;1.05;;
36725;SDS011;44936;52.086;5.150;2023-04-24T08:14:40;3.92;;;1.02;;
36725;SDS011;44936;52.086;5.150;2023-04-24T08:17:06;4.68;;;1.42;;
36725;SDS011;44936;52.086;5.150;2023-04-24T08:19:31;5.35;;;1.25;;
36725;SDS011;44936;52.086;5.150;2023-04-24T08:21:56;6.85;;;1.02;;
36725;SDS011;44936;52.086;5.150;2023-04-24T08:24:22;6.82;;;1.50;;
36725;SDS011;44936;52.086;5.150;2023-04-24T08:26:48;4.78;;;1.00;;
36725;SDS011;44936;52.086;5.150;2023-04-24T08:29:17;3.78;;;1.23;;
36725;SDS011;44936;52.086;5.150;2023-04-24T08:31:42;4.70;;;0.85;;
36725;SDS011;44936;52.086;5.150;2023-04-24T08:34:08;2.40;;;0.80;;
36725;SDS011;44936;52.086;5.150;2023-04-24T08:36:35;9.18;;;1.15;;
36725;SDS011;44936;52.086;5.150;2023-04-24T08:39:00;5.05;;;1.10;;
36725;SDS011;44936;52.086;5.150;2023-04-24T08:41:26;1.30;;;0.68;;
36725;SDS011;44936;52.086;5.150;2023-04-24T08:43:52;3.03;;;0.70;;
36725;SDS011;44936;52.086;5.150;2023-04-24T08:46:18;1.25;;;0.80;;
36725;SDS011;44936;52.086;5.150;2023-04-24T08:48:45;3.05;;;0.80;;
36725;SDS011;44936;52.086;5.150;2023-04-24T08:51:10;5.75;;;0.85;;
36725;SDS011;44936;52.086;5.150;2023-04-24T08:53:36;5.82;;;1.00;;
36725;SDS011;44936;52.086;5.150;2023-04-24T08:56:02;3.72;;;0.93;;
36725;SDS011;44936;52.086;5.150;2023-04-24T08:58:28;6.65;;;1.00;;
36725;SDS011;44936;52.086;5.150;2023-04-24T09:00:54;8.00;;;1.05;;
36725;SDS011;44936;52.086;5.150;2023-04-24T09:03:20;6.65;;;0.95;;
36725;SDS011;44936;52.086;5.150;2023-04-24T09:05:46;1.35;;;0.60;;
36725;SDS011;44936;52.086;5.150;2023-04-24T09:08:14;2.50;;;0.80;;
36725;SDS011;44936;52.086;5.150;2023-04-24T09:10:42;4.65;;;1.48;;
36725;SDS011;44936;52.086;5.150;2023-04-24T09:13:07;2.50;;;0.70;;
36725;SDS011;44936;52.086;5.150;2023-04-24T09:15:36;4.63;;;1.00;;
36725;SDS011;44936;52.086;5.150;2023-04-24T09:18:04;2.75;;;0.75;;
36725;SDS011;44936;52.086;5.150;2023-04-24T09:20:29;5.40;;;1.60;;
36725;SDS011;44936;52.086;5.150;2023-04-24T09:22:56;4.53;;;0.90;;
36725;SDS011;44936;52.086;5.150;2023-04-24T09:25:22;3.33;;;0.90;;
36725;SDS011;44936;52.086;5.150;2023-04-24T09:27:58;4.85;;;1.05;;
36725;SDS011;44936;52.086;5.150;2023-04-24T09:30:26;2.33;;;0.70;;
36725;SDS011;44936;52.086;5.150;2023-04-24T09:33:09;6.35;;;1.10;;
36725;SDS011;44936;52.086;5.150;2023-04-24T09:35:42;3.90;;;0.90;;
36725;SDS011;44936;52.086;5.150;2023-04-24T09:38:13;5.95;;;0.68;;
36725;SDS011;44936;52.086;5.150;2023-04-24T09:40:38;2.42;;;0.70;;
36725;SDS011;44936;52.086;5.150;2023-04-24T09:43:04;1.63;;;0.98;;
36725;SDS011;44936;52.086;5.150;2023-04-24T09:45:36;3.28;;;0.77;;
36725;SDS011;44936;52.086;5.150;2023-04-24T09:48:02;2.20;;;0.88;;
36725;SDS011;44936;52.086;5.150;2023-04-24T09:50:29;4.78;;;1.00;;
36725;SDS011;44936;52.086;5.150;2023-04-24T09:53:01;3.28;;;0.68;;
36725;SDS011;44936;52.086;5.150;2023-04-24T09:55:27;3.83;;;0.80;;
36725;SDS011;44936;52.086;5.150;2023-04-24T09:57:57;5.22;;;0.85;;
36725;SDS011;44936;52.086;5.150;2023-04-24T10:00:26;1.55;;;0.80;;
36725;SDS011;44936;52.086;5.150;2023-04-24T10:03:03;0.68;;;0.50;;
36725;SDS011;44936;52.086;5.150;2023-04-24T10:05:32;2.78;;;0.80;;
36725;SDS011;44936;52.086;5.150;2023-04-24T10:08:06;2.08;;;0.50;;
36725;SDS011;44936;52.086;5.150;2023-04-24T10:10:37;3.40;;;0.63;;
36725;SDS011;44936;52.086;5.150;2023-04-24T10:13:04;2.33;;;0.70;;
36725;SDS011;44936;52.086;5.150;2023-04-24T10:15:32;1.52;;;0.60;;
36725;SDS011;44936;52.086;5.150;2023-04-24T10:17:58;1.58;;;0.47;;
36725;SDS011;44936;52.086;5.150;2023-04-24T10:20:25;0.50;;;0.25;;
36725;SDS011;44936;52.086;5.150;2023-04-24T10:22:54;3.72;;;0.40;;
36725;SDS011;44936;52.086;5.150;2023-04-24T10:25:20;0.60;;;0.30;;
36725;SDS011;44936;52.086;5.150;2023-04-24T10:27:48;0.20;;;0.20;;
36725;SDS011;44936;52.086;5.150;2023-04-24T10:30:14;3.05;;;0.50;;
36725;SDS011;44936;52.086;5.150;2023-04-24T10:32:40;1.15;;;0.30;;
36725;SDS011;44936;52.086;5.150;2023-04-24T10:35:06;1.00;;;0.20;;
36725;SDS011;44936;52.086;5.150;2023-04-24T10:37:36;0.52;;;0.40;;
36725;SDS011;44936;52.086;5.150;2023-04-24T10:40:05;1.08;;;0.40;;
36725;SDS011;44936;52.086;5.150;2023-04-24T10:42:32;0.80;;;0.50;;
36725;SDS011;44936;52.086;5.150;2023-04-24T10:44:58;0.47;;;0.13;;
36725;SDS011;44936;52.086;5.150;2023-04-24T10:47:23;2.22;;;0.20;;
36725;SDS011;44936;52.086;5.150;2023-04-24T10:49:50;0.93;;;0.30;;
36725;SDS011;44936;52.086;5.150;2023-04-24T10:52:16;0.55;;;0.22;;
36725;SDS011;44936;52.086;5.150;2023-04-24T10:54:46;0.35;;;0.30;;
36725;SDS011;44936;52.086;5.150;2023-04-24T10:59:48;2.40;;;0.30;;
36725;SDS011;44936;52.086;5.150;2023-04-24T11:02:37;4.82;;;0.38;;
36725;SDS011;44936;52.086;5.150;2023-04-24T11:05:03;2.92;;;0.52;;
36725;SDS011;44936;52.086;5.150;2023-04-24T11:07:29;0.90;;;0.32;;
36725;SDS011;44936;52.086;5.150;2023-04-24T11:09:58;0.10;;;0.10;;
36725;SDS011;44936;52.086;5.150;2023-04-24T11:12:25;1.65;;;0.30;;
36725;SDS011;44936;52.086;5.150;2023-04-24T11:17:36;1.05;;;0.35;;
36725;SDS011;44936;52.086;5.150;2023-04-24T11:20:07;3.65;;;0.30;;
36725;SDS011;44936;52.086;5.150;2023-04-24T11:22:34;5.32;;;0.70;;
36725;SDS011;44936;52.086;5.150;2023-04-24T11:25:01;3.17;;;0.40;;
36725;SDS011;44936;52.086;5.150;2023-04-24T11:27:29;0.73;;;0.30;;
36725;SDS011;44936;52.086;5.150;2023-04-24T11:32:26;0.43;;;0.40;;
36725;SDS011;44936;52.086;5.150;2023-04-24T11:34:53;0.20;;;0.10;;
36725;SDS011;44936;52.086;5.150;2023-04-24T11:37:23;3.90;;;0.40;;
36725;SDS011;44936;52.086;5.150;2023-04-24T11:39:53;1.30;;;0.30;;
36725;SDS011;44936;52.086;5.150;2023-04-24T11:42:19;0.32;;;0.20;;
36725;SDS011;44936;52.086;5.150;2023-04-24T11:44:46;0.65;;;0.20;;
36725;SDS011;44936;52.086;5.150;2023-04-24T11:47:12;0.22;;;0.20;;
36725;SDS011;44936;52.086;5.150;2023-04-24T11:49:37;1.65;;;0.50;;
36725;SDS011;44936;52.086;5.150;2023-04-24T11:52:03;2.30;;;0.63;;
36725;SDS011;44936;52.086;5.150;2023-04-24T11:54:29;0.30;;;0.30;;
36725;SDS011;44936;52.086;5.150;2023-04-24T11:56:55;1.33;;;0.30;;
36725;SDS011;44936;52.086;5.150;2023-04-24T11:59:21;0.60;;;0.40;;
36725;SDS011;44936;52.086;5.150;2023-04-24T12:01:47;1.58;;;0.93;;
36725;SDS011;44936;52.086;5.150;2023-04-24T12:04:14;0.75;;;0.43;;
36725;SDS011;44936;52.086;5.150;2023-04-24T12:06:58;4.13;;;0.45;;
36725;SDS011;44936;52.086;5.150;2023-04-24T12:09:24;4.28;;;0.50;;
36725;SDS011;44936;52.086;5.150;2023-04-24T12:11:54;2.30;;;0.40;;
36725;SDS011;44936;52.086;5.150;2023-04-24T12:14:23;2.88;;;0.43;;
36725;SDS011;44936;52.086;5.150;2023-04-24T12:16:52;3.25;;;1.02;;
36725;SDS011;44936;52.086;5.150;2023-04-24T12:19:21;2.95;;;0.40;;
36725;SDS011;44936;52.086;5.150;2023-04-24T12:22:00;0.35;;;0.35;;
36725;SDS011;44936;52.086;5.150;2023-04-24T12:24:30;1.10;;;0.57;;
36725;SDS011;44936;52.086;5.150;2023-04-24T12:26:57;2.55;;;0.52;;
36725;SDS011;44936;52.086;5.150;2023-04-24T12:29:23;4.75;;;0.77;;
36725;SDS011;44936;52.086;5.150;2023-04-24T12:31:49;4.88;;;0.90;;
36725;SDS011;44936;52.086;5.150;2023-04-24T12:34:23;0.52;;;0.52;;
36725;SDS011;44936;52.086;5.150;2023-04-24T12:36:51;2.13;;;0.50;;
36725;SDS011;44936;52.086;5.150;2023-04-24T12:39:17;3.05;;;0.50;;
36725;SDS011;44936;52.086;5.150;2023-04-24T12:41:50;1.35;;;0.60;;
36725;SDS011;44936;52.086;5.150;2023-04-24T12:44:32;2.30;;;0.60;;
36725;SDS011;44936;52.086;5.150;2023-04-24T12:47:02;1.48;;;0.47;;
36725;SDS011;44936;52.086;5.150;2023-04-24T12:49:31;1.05;;;0.40;;
36725;SDS011;44936;52.086;5.150;2023-04-24T12:51:57;2.63;;;0.68;;
36725;SDS011;44936;52.086;5.150;2023-04-24T12:54:22;3.42;;;1.27;;
36725;SDS011;44936;52.086;5.150;2023-04-24T12:56:47;3.35;;;0.50;;
36725;SDS011;44936;52.086;5.150;2023-04-24T12:59:13;3.00;;;0.75;;
36725;SDS011;44936;52.086;5.150;2023-04-24T13:01:38;1.98;;;0.75;;
36725;SDS011;44936;52.086;5.150;2023-04-24T13:04:04;2.22;;;0.80;;
36725;SDS011;44936;52.086;5.150;2023-04-24T13:06:30;1.65;;;0.75;;
36725;SDS011;44936;52.086;5.150;2023-04-24T13:08:56;1.58;;;0.95;;
36725;SDS011;44936;52.086;5.150;2023-04-24T13:11:22;5.50;;;0.85;;
36725;SDS011;44936;52.086;5.150;2023-04-24T13:13:48;3.47;;;0.80;;
36725;SDS011;44936;52.086;5.150;2023-04-24T13:16:13;3.72;;;0.75;;
36725;SDS011;44936;52.086;5.150;2023-04-24T13:18:39;3.15;;;1.00;;
36725;SDS011;44936;52.086;5.150;2023-04-24T13:21:04;4.18;;;1.20;;
36725;SDS011;44936;52.086;5.150;2023-04-24T13:23:30;5.80;;;0.90;;
36725;SDS011;44936;52.086;5.150;2023-04-24T13:25:55;6.10;;;0.93;;
36725;SDS011;44936;52.086;5.150;2023-04-24T13:28:23;5.00;;;0.98;;
36725;SDS011;44936;52.086;5.150;2023-04-24T13:30:49;4.97;;;1.42;;
36725;SDS011;44936;52.086;5.150;2023-04-24T13:33:15;2.50;;;0.90;;
36725;SDS011;44936;52.086;5.150;2023-04-24T13:35:40;10.80;;;1.50;;
36725;SDS011;44936;52.086;5.150;2023-04-24T13:38:05;5.93;;;1.10;;
36725;SDS011;44936;52.086;5.150;2023-04-24T13:40:31;2.03;;;1.10;;
36725;SDS011;44936;52.086;5.150;2023-04-24T13:42:57;3.08;;;0.95;;
36725;SDS011;44936;52.086;5.150;2023-04-24T13:45:22;4.97;;;1.33;;
36725;SDS011;44936;52.086;5.150;2023-04-24T13:47:48;5.15;;;1.13;;
36725;SDS011;44936;52.086;5.150;2023-04-24T13:50:13;1.85;;;0.75;;
36725;SDS011;44936;52.086;5.150;2023-04-24T13:52:38;3.22;;;1.00;;
36725;SDS011;44936;52.086;5.150;2023-04-24T13:55:04;5.65;;;1.20;;
36725;SDS011;44936;52.086;5.150;2023-04-24T13:57:29;8.32;;;1.17;;
36725;SDS011;44936;52.086;5.150;2023-04-24T13:59:56;2.08;;;1.25;;
36725;SDS011;44936;52.086;5.150;2023-04-24T14:02:26;3.53;;;1.30;;
36725;SDS011;44936;52.086;5.150;2023-04-24T14:04:51;4.65;;;1.40;;
36725;SDS011;44936;52.086;5.150;2023-04-24T14:07:16;2.40;;;1.42;;
36725;SDS011;44936;52.086;5.150;2023-04-24T14:09:42;5.75;;;1.40;;
36725;SDS011;44936;52.086;5.150;2023-04-24T14:12:07;2.90;;;1.38;;
36725;SDS011;44936;52.086;5.150;2023-04-24T14:14:32;3.08;;;0.95;;
36725;SDS011;44936;52.086;5.150;2023-04-24T14:16:58;3.90;;;1.23;;
36725;SDS011;44936;52.086;5.150;2023-04-24T14:19:23;2.58;;;1.13;;
36725;SDS011;44936;52.086;5.150;2023-04-24T14:21:49;2.70;;;1.08;;
36725;SDS011;44936;52.086;5.150;2023-04-24T14:24:14;3.92;;;1.70;;
36725;SDS011;44936;52.086;5.150;2023-04-24T14:26:40;3.80;;;1.30;;
36725;SDS011;44936;52.086;5.150;2023-04-24T14:29:06;7.43;;;1.70;;
36725;SDS011;44936;52.086;5.150;2023-04-24T14:31:31;2.55;;;1.20;;
36725;SDS011;44936;52.086;5.150;2023-04-24T14:33:56;3.35;;;1.20;;
36725;SDS011;44936;52.086;5.150;2023-04-24T14:36:22;4.68;;;1.45;;
36725;SDS011;44936;52.086;5.150;2023-04-24T14:38:47;2.08;;;1.30;;
36725;SDS011;44936;52.086;5.150;2023-04-24T14:41:14;6.18;;;1.27;;
36725;SDS011;44936;52.086;5.150;2023-04-24T14:43:39;1.35;;;1.00;;
36725;SDS011;44936;52.086;5.150;2023-04-24T14:46:05;4.22;;;1.23;;
36725;SDS011;44936;52.086;5.150;2023-04-24T14:48:30;4.05;;;1.02;;
36725;SDS011;44936;52.086;5.150;2023-04-24T14:50:56;7.28;;;1.50;;